Time;durP1;ratioP1;P1;durP2;ratioP2;P2;SDS_P1;SDS_P2;PMS_P1;PMS_P2;Temp;Humidity;BMP_temperature;BMP_pressure;BME280_temperature;BME280_humidity;BME280_pressure;Samples;Min_cycle;Max_cycle;Signal;HPM_P1;HPM_P2
2021/09/28 00:01:55;;;;;;;4.57;2.70;;;20.00;99.90;;;;;;5075341;28;20134;-73
2021/09/28 00:04:22;;;;;;;6.35;3.05;;;20.20;99.90;;;;;;5075338;28;20024;-71
2021/09/28 00:06:49;;;;;;;8.15;2.85;;;20.30;99.90;;;;;;5073874;28;20086;-71
2021/09/28 00:09:17;;;;;;;6.30;2.75;;;20.40;99.90;;;;;;5073861;28;20024;-71
2021/09/28 00:11:49;;;;;;;5.88;2.42;;;20.40;99.90;;;;;;5075167;28;20490;-71
2021/09/28 00:14:18;;;;;;;4.82;2.63;;;20.50;99.90;;;;;;5075167;28;20096;-71
2021/09/28 00:16:46;;;;;;;10.00;2.65;;;20.70;99.90;;;;;;5074942;28;20436;-71
2021/09/28 00:19:13;;;;;;;4.45;2.80;;;20.60;99.90;;;;;;5073712;28;20158;-71
2021/09/28 00:21:41;;;;;;;3.78;2.42;;;20.60;99.90;;;;;;5073692;28;20049;-71
2021/09/28 00:24:08;;;;;;;5.25;2.50;;;20.80;99.40;;;;;;5074949;28;20020;-72
2021/09/28 00:26:36;;;;;;;5.93;2.53;;;20.90;98.60;;;;;;5073544;28;20389;-72
2021/09/28 00:29:03;;;;;;;5.82;2.50;;;20.90;98.70;;;;;;5075003;28;20025;-72
2021/09/28 00:31:31;;;;;;;5.63;2.05;;;20.50;99.20;;;;;;5074804;28;20021;-72
2021/09/28 00:33:58;;;;;;;5.93;2.25;;;20.50;99.20;;;;;;5074102;28;20062;-72
2021/09/28 00:36:25;;;;;;;8.60;2.80;;;20.50;99.00;;;;;;5074754;28;20481;-72
2021/09/28 00:38:53;;;;;;;6.22;2.80;;;20.70;99.20;;;;;;5073417;28;20025;-72
2021/09/28 00:41:21;;;;;;;5.95;2.78;;;20.90;98.50;;;;;;5074516;28;20134;-73
2021/09/28 00:43:54;;;;;;;4.65;2.60;;;20.70;98.60;;;;;;5073320;28;20366;-72
2021/09/28 00:46:24;;;;;;;7.35;2.50;;;20.70;99.10;;;;;;5074677;28;20043;-72
2021/09/28 00:48:53;;;;;;;3.42;2.55;;;21.00;99.00;;;;;;5074485;28;20020;-72
2021/09/28 00:51:21;;;;;;;7.28;2.75;;;20.80;99.10;;;;;;5074307;28;20032;-72
2021/09/28 00:53:51;;;;;;;5.78;2.88;;;20.60;98.40;;;;;;5074287;28;20102;-71
2021/09/28 00:56:21;;;;;;;4.03;2.80;;;20.70;99.10;;;;;;5073083;28;20124;-72
2021/09/28 00:58:49;;;;;;;5.75;2.90;;;20.80;99.10;;;;;;5074208;28;20032;-71
2021/09/28 01:01:17;;;;;;;4.55;2.72;;;21.00;99.20;;;;;;5074275;28;20017;-70
2021/09/28 01:03:44;;;;;;;6.47;2.58;;;21.50;98.90;;;;;;5072855;28;20063;-71
2021/09/28 01:06:11;;;;;;;4.55;2.47;;;21.20;98.50;;;;;;5074163;28;20032;-71
2021/09/28 01:08:39;;;;;;;5.53;2.55;;;21.30;98.90;;;;;;5072757;28;20032;-71
2021/09/28 01:11:06;;;;;;;4.15;2.80;;;21.30;98.60;;;;;;5073960;28;20027;-71
2021/09/28 01:13:34;;;;;;;5.95;3.05;;;21.60;98.30;;;;;;5073965;28;20370;-71
2021/09/28 01:16:01;;;;;;;5.28;2.60;;;21.40;98.50;;;;;;5072342;28;20186;-72
2021/09/28 01:18:31;;;;;;;4.55;2.70;;;21.60;98.20;;;;;;5073664;28;20587;-72
2021/09/28 01:20:59;;;;;;;3.97;2.55;;;21.70;98.10;;;;;;5073901;28;20028;-72
2021/09/28 01:23:27;;;;;;;4.53;3.05;;;21.70;98.00;;;;;;5072187;28;20036;-72
2021/09/28 01:25:54;;;;;;;3.67;2.88;;;22.00;97.90;;;;;;5073544;28;20370;-72
2021/09/28 01:28:22;;;;;;;7.95;3.17;;;21.70;97.70;;;;;;5073546;28;20032;-72
2021/09/28 01:30:50;;;;;;;9.10;3.13;;;21.60;98.60;;;;;;5072259;28;20033;-71
2021/09/28 01:33:18;;;;;;;5.32;2.90;;;21.60;97.80;;;;;;5073379;28;20032;-70
2021/09/28 01:35:45;;;;;;;8.10;3.25;;;21.70;98.30;;;;;;5073561;28;20492;-72
2021/09/28 01:38:12;;;;;;;6.95;2.92;;;21.90;98.20;;;;;;5073472;28;20099;-70
2021/09/28 01:40:40;;;;;;;6.40;2.85;;;21.80;97.60;;;;;;5073403;28;20027;-70
2021/09/28 01:43:09;;;;;;;4.47;2.90;;;21.70;97.90;;;;;;5073287;28;20059;-70
2021/09/28 01:45:37;;;;;;;4.90;2.88;;;21.90;97.60;;;;;;5072393;28;20021;-71
2021/09/28 01:48:06;;;;;;;8.73;3.00;;;22.10;97.70;;;;;;5073222;28;20043;-70
2021/09/28 01:50:34;;;;;;;6.28;2.85;;;22.30;97.60;;;;;;5071886;28;20431;-71
2021/09/28 01:53:02;;;;;;;3.97;3.00;;;22.40;97.50;;;;;;5073121;28;20420;-71
2021/09/28 01:55:29;;;;;;;4.68;2.45;;;22.20;97.50;;;;;;5073331;28;20012;-70
2021/09/28 01:57:57;;;;;;;4.85;2.80;;;22.20;97.20;;;;;;5073087;28;20025;-70
2021/09/28 02:00:25;;;;;;;5.43;2.90;;;22.10;97.30;;;;;;5073004;28;20024;-71
2021/09/28 02:02:52;;;;;;;5.75;3.20;;;22.10;97.80;;;;;;5072960;28;20024;-70
2021/09/28 02:05:20;;;;;;;3.17;2.47;;;22.00;97.80;;;;;;5072808;28;20054;-71
2021/09/28 02:07:48;;;;;;;6.30;3.00;;;22.00;97.50;;;;;;5072947;28;20360;-71
2021/09/28 02:10:15;;;;;;;5.80;2.70;;;22.00;97.60;;;;;;5072939;28;20024;-69
2021/09/28 02:12:43;;;;;;;5.10;2.60;;;22.10;97.90;;;;;;5072872;28;20032;-72
2021/09/28 02:15:11;;;;;;;4.50;2.80;;;22.00;98.00;;;;;;5071319;28;20059;-72
2021/09/28 02:17:40;;;;;;;8.18;2.88;;;21.90;98.10;;;;;;5072097;28;20056;-72
2021/09/28 02:20:08;;;;;;;3.90;2.30;;;22.10;97.80;;;;;;5071519;28;20052;-72
2021/09/28 02:22:36;;;;;;;6.20;2.83;;;22.00;97.40;;;;;;5072821;28;20020;-72
2021/09/28 02:25:04;;;;;;;5.15;2.60;;;21.70;98.10;;;;;;5071510;28;20056;-72
2021/09/28 02:27:31;;;;;;;4.00;2.70;;;22.10;98.20;;;;;;5072800;28;20179;-71
2021/09/28 02:29:59;;;;;;;4.75;2.70;;;21.60;98.00;;;;;;5071559;28;20110;-72
2021/09/28 02:32:26;;;;;;;7.60;2.83;;;21.40;98.40;;;;;;5071338;28;20032;-71
2021/09/28 02:34:54;;;;;;;4.90;2.67;;;21.60;98.50;;;;;;5072609;28;20021;-72
2021/09/28 02:37:21;;;;;;;7.00;3.00;;;21.20;98.90;;;;;;5072484;28;20024;-72
2021/09/28 02:39:49;;;;;;;7.60;2.90;;;21.40;98.90;;;;;;5072664;28;20492;-72
2021/09/28 02:42:16;;;;;;;5.57;2.70;;;21.20;98.10;;;;;;5071178;28;20024;-72
2021/09/28 02:44:43;;;;;;;5.20;3.13;;;21.40;98.40;;;;;;5071281;28;20489;-72
2021/09/28 02:47:11;;;;;;;5.43;2.63;;;21.80;98.40;;;;;;5071293;28;20028;-72
2021/09/28 02:49:38;;;;;;;5.38;3.20;;;22.20;97.70;;;;;;5072679;28;20101;-72
2021/09/28 02:52:06;;;;;;;7.93;2.65;;;22.50;97.30;;;;;;5072560;28;20075;-72
2021/09/28 02:54:33;;;;;;;4.28;2.83;;;22.50;97.50;;;;;;5071221;28;20028;-72
2021/09/28 02:57:01;;;;;;;5.28;3.03;;;22.60;96.80;;;;;;5072408;28;20115;-72
2021/09/28 02:59:28;;;;;;;6.00;3.22;;;22.50;97.30;;;;;;5075274;28;20078;-72
2021/09/28 03:01:55;;;;;;;4.13;2.60;;;22.50;97.00;;;;;;5075270;28;20500;-74
2021/09/28 03:04:23;;;;;;;6.90;2.60;;;22.20;97.00;;;;;;5076434;28;20024;-73
2021/09/28 03:06:50;;;;;;;3.38;2.63;;;22.50;97.00;;;;;;5076436;28;20066;-73
2021/09/28 03:09:17;;;;;;;5.03;2.63;;;22.60;97.50;;;;;;5075148;28;20382;-72
2021/09/28 03:11:45;;;;;;;4.22;2.50;;;22.60;97.30;;;;;;5076388;28;20044;-73
2021/09/28 03:14:12;;;;;;;4.20;2.50;;;22.90;97.20;;;;;;5076262;28;20021;-72
2021/09/28 03:16:40;;;;;;;7.47;2.50;;;22.80;96.30;;;;;;5074812;28;20040;-71
2021/09/28 03:19:08;;;;;;;4.90;2.65;;;22.60;96.60;;;;;;5076282;28;20500;-72
2021/09/28 03:21:35;;;;;;;4.88;2.47;;;22.90;96.30;;;;;;5076166;28;20389;-72
2021/09/28 03:24:02;;;;;;;4.03;2.63;;;22.90;96.40;;;;;;5074962;28;20052;-71
2021/09/28 03:26:30;;;;;;;7.05;2.90;;;22.70;96.30;;;;;;5075908;28;20130;-71
2021/09/28 03:28:57;;;;;;;4.82;2.63;;;22.70;96.80;;;;;;5075838;28;20024;-71
2021/09/28 03:31:24;;;;;;;4.72;2.70;;;23.20;97.10;;;;;;5075911;28;20020;-70
2021/09/28 03:33:52;;;;;;;7.72;2.90;;;23.00;95.90;;;;;;5075921;28;20215;-71
2021/09/28 03:36:19;;;;;;;6.00;2.85;;;22.70;96.40;;;;;;5075840;28;20024;-71
2021/09/28 03:38:47;;;;;;;4.70;2.90;;;22.50;96.80;;;;;;5074606;28;20017;-71
2021/09/28 03:41:15;;;;;;;4.75;2.70;;;22.60;96.90;;;;;;5074356;28;20017;-71
2021/09/28 03:43:42;;;;;;;5.50;2.83;;;23.20;96.50;;;;;;5074310;28;20052;-72
2021/09/28 03:46:10;;;;;;;3.80;2.80;;;22.80;95.70;;;;;;5075582;28;20099;-71
2021/09/28 03:48:37;;;;;;;4.50;2.97;;;22.30;96.60;;;;;;5074329;28;20396;-72
2021/09/28 03:51:05;;;;;;;6.20;3.00;;;22.10;97.30;;;;;;5075726;28;20027;-72
2021/09/28 03:53:32;;;;;;;4.80;2.90;;;22.20;97.60;;;;;;5075187;28;20515;-73
2021/09/28 03:55:59;;;;;;;5.72;3.20;;;22.10;98.00;;;;;;5075397;28;20016;-71
2021/09/28 03:58:27;;;;;;;6.72;2.95;;;22.10;98.10;;;;;;5074149;28;20381;-71
2021/09/28 04:00:54;;;;;;;7.82;3.20;;;21.80;98.20;;;;;;5074187;28;20028;-71
2021/09/28 04:03:22;;;;;;;4.10;3.00;;;21.40;98.40;;;;;;5075366;28;20025;-72
2021/09/28 04:05:49;;;;;;;5.43;3.38;;;21.40;98.90;;;;;;5075307;28;20553;-72
2021/09/28 04:08:16;;;;;;;5.78;3.30;;;21.20;99.20;;;;;;5072939;28;20032;-71
2021/09/28 04:10:43;;;;;;;6.47;3.00;;;21.30;99.20;;;;;;5074024;28;20054;-71
2021/09/28 04:13:11;;;;;;;7.65;3.42;;;21.10;99.50;;;;;;5075054;28;20044;-71
2021/09/28 04:15:40;;;;;;;6.70;2.85;;;21.00;99.30;;;;;;5074990;28;20052;-71
2021/09/28 04:18:12;;;;;;;5.32;2.70;;;21.00;99.60;;;;;;5075077;28;20024;-71
2021/09/28 04:20:42;;;;;;;4.63;3.10;;;21.60;99.10;;;;;;5073810;28;20024;-71
2021/09/28 04:23:09;;;;;;;;;;;21.50;99.40;;;;;;5074135;28;20029;-72
2021/09/28 04:25:37;;;;;;;8.48;3.15;;;21.20;99.50;;;;;;5074861;28;19944;-71
2021/09/28 04:28:05;;;;;;;6.95;2.83;;;21.20;99.80;;;;;;5074955;28;20032;-72
2021/09/28 04:30:33;;;;;;;8.05;3.22;;;21.10;99.40;;;;;;5074892;28;20027;-71
2021/09/28 04:33:01;;;;;;;5.60;3.42;;;20.90;99.60;;;;;;5057080;28;20512;-71
2021/09/28 04:35:28;;;;;;;6.57;3.20;;;20.70;99.90;;;;;;5073477;28;20024;-71
2021/09/28 04:37:56;;;;;;;7.13;3.13;;;20.70;99.90;;;;;;5074755;28;20104;-71
2021/09/28 04:40:23;;;;;;;7.05;3.70;;;20.80;99.90;;;;;;5074618;28;20013;-72
2021/09/28 04:42:51;;;;;;;11.27;3.60;;;20.40;99.90;;;;;;5074685;28;20471;-72
2021/09/28 04:45:19;;;;;;;9.20;3.42;;;20.30;99.90;;;;;;5074459;28;20024;-72
2021/09/28 04:47:46;;;;;;;6.82;3.10;;;20.20;99.90;;;;;;5073201;28;20496;-71
2021/09/28 04:50:14;;;;;;;7.43;4.10;;;20.10;99.90;;;;;;5073179;28;20024;-73
2021/09/28 04:52:41;;;;;;;9.35;3.78;;;20.00;99.90;;;;;;5074421;28;20023;-71
2021/09/28 04:55:09;;;;;;;6.85;3.42;;;20.00;99.90;;;;;;5072984;28;20021;-71
2021/09/28 04:57:36;;;;;;;7.00;3.22;;;19.80;99.90;;;;;;5074227;28;20492;-71
2021/09/28 05:00:05;;;;;;;8.88;3.10;;;19.70;99.90;;;;;;5074166;28;20027;-72
2021/09/28 05:02:33;;;;;;;7.85;3.05;;;19.60;99.90;;;;;;5072735;28;20024;-72
2021/09/28 05:05:00;;;;;;;11.00;3.20;;;19.50;99.90;;;;;;5072928;28;20113;-72
2021/09/28 05:07:28;;;;;;;12.32;3.55;;;19.60;99.90;;;;;;5073245;28;20021;-72
2021/09/28 05:09:55;;;;;;;9.00;3.58;;;19.60;99.90;;;;;;5074104;28;20082;-73
2021/09/28 05:12:22;;;;;;;11.00;3.42;;;19.80;99.90;;;;;;5074048;28;20066;-72
2021/09/28 05:14:50;;;;;;;9.20;3.70;;;19.80;99.90;;;;;;5073986;28;20017;-72
2021/09/28 05:17:17;;;;;;;9.90;3.70;;;19.90;99.90;;;;;;5073994;28;20381;-73
2021/09/28 05:19:44;;;;;;;7.88;3.53;;;19.80;99.90;;;;;;5073725;28;20020;-73
2021/09/28 05:22:12;;;;;;;10.93;4.32;;;19.90;99.90;;;;;;5072417;28;20025;-73
2021/09/28 05:24:42;;;;;;;10.95;3.80;;;20.00;99.90;;;;;;5073804;28;20072;-73
2021/09/28 05:27:10;;;;;;;15.40;4.18;;;19.90;99.90;;;;;;5072446;28;20031;-73
2021/09/28 05:29:37;;;;;;;9.85;3.90;;;19.90;99.90;;;;;;5073667;28;20021;-73
2021/09/28 05:32:05;;;;;;;9.85;3.90;;;20.00;99.90;;;;;;5072290;28;20112;-73
2021/09/28 05:34:32;;;;;;;10.10;4.30;;;20.40;99.90;;;;;;5073633;28;20040;-72
2021/09/28 05:37:00;;;;;;;10.25;4.55;;;20.60;99.90;;;;;;5073636;28;20392;-73
2021/09/28 05:39:27;;;;;;;10.00;4.22;;;20.90;99.90;;;;;;5073634;28;20465;-72
2021/09/28 05:41:55;;;;;;;10.35;4.00;;;21.00;99.90;;;;;;5072562;28;20104;-72
2021/09/28 05:44:22;;;;;;;10.55;3.90;;;21.20;99.90;;;;;;5073329;28;20017;-72
2021/09/28 05:46:50;;;;;;;9.30;3.35;;;21.30;99.90;;;;;;5073362;28;20048;-74
2021/09/28 05:49:17;;;;;;;10.02;3.55;;;21.00;99.90;;;;;;5073225;28;20431;-73
2021/09/28 05:51:52;;;;;;;8.38;3.55;;;20.60;99.90;;;;;;5073257;28;20025;-73
2021/09/28 05:54:21;;;;;;;11.38;3.60;;;20.70;99.90;;;;;;5071862;28;20105;-71
2021/09/28 05:56:50;;;;;;;9.57;3.60;;;20.90;99.90;;;;;;5073174;28;20016;-71
2021/09/28 05:59:18;;;;;;;10.80;3.83;;;20.90;99.90;;;;;;5071682;28;20032;-72
2021/09/28 06:01:47;;;;;;;8.98;3.53;;;21.00;99.90;;;;;;5071761;28;20073;-72
2021/09/28 06:04:15;;;;;;;12.55;4.63;;;20.80;99.90;;;;;;5072907;28;20078;-74
2021/09/28 06:06:42;;;;;;;12.68;4.75;;;20.50;99.90;;;;;;5073046;28;20086;-72
2021/09/28 06:09:09;;;;;;;8.75;3.97;;;20.20;99.90;;;;;;5071655;28;20033;-72
2021/09/28 06:11:37;;;;;;;10.35;3.85;;;19.90;99.90;;;;;;5073086;28;20079;-72
2021/09/28 06:14:04;;;;;;;12.55;4.78;;;19.70;99.90;;;;;;5071619;28;20028;-72
2021/09/28 06:16:32;;;;;;;15.07;4.68;;;19.50;99.90;;;;;;5072823;28;20124;-72
2021/09/28 06:18:59;;;;;;;13.10;4.00;;;19.50;99.90;;;;;;5072777;28;20477;-72
2021/09/28 06:21:26;;;;;;;14.57;4.82;;;19.50;99.90;;;;;;5072846;28;20025;-73
2021/09/28 06:23:54;;;;;;;11.45;4.13;;;19.40;99.90;;;;;;5072752;28;20016;-73
2021/09/28 06:26:21;;;;;;;18.35;4.60;;;19.50;99.90;;;;;;5072766;28;20020;-73
2021/09/28 06:28:49;;;;;;;13.57;4.35;;;19.70;99.90;;;;;;5072689;28;20055;-72
2021/09/28 06:31:16;;;;;;;13.15;4.53;;;19.80;99.90;;;;;;5070666;28;20020;-72
2021/09/28 06:33:43;;;;;;;12.45;5.43;;;19.80;99.90;;;;;;5072773;28;20032;-72
2021/09/28 06:36:11;;;;;;;9.98;4.45;;;19.90;99.90;;;;;;5072817;28;20016;-73
2021/09/28 06:38:38;;;;;;;12.70;4.32;;;20.00;99.90;;;;;;5072634;28;20393;-73
2021/09/28 06:41:06;;;;;;;13.45;4.65;;;20.00;99.90;;;;;;5072706;28;20017;-73
2021/09/28 06:43:33;;;;;;;14.73;4.60;;;19.90;99.90;;;;;;5072599;28;20412;-73
2021/09/28 06:46:01;;;;;;;8.25;4.30;;;19.80;99.90;;;;;;5071250;28;20032;-73
2021/09/28 06:48:28;;;;;;;10.45;4.75;;;19.70;99.90;;;;;;5072585;28;20052;-72
2021/09/28 06:50:56;;;;;;;18.70;5.93;;;19.60;99.90;;;;;;5071223;28;20021;-72
2021/09/28 06:53:23;;;;;;;15.30;4.75;;;19.60;99.90;;;;;;5072552;28;20036;-72
2021/09/28 06:55:51;;;;;;;16.10;5.80;;;19.50;99.90;;;;;;5072491;28;20043;-72
2021/09/28 06:58:18;;;;;;;13.23;5.10;;;19.30;99.90;;;;;;5071224;28;20499;-73
2021/09/28 07:00:45;;;;;;;19.73;5.30;;;19.20;99.90;;;;;;5072449;28;20381;-72
2021/09/28 07:03:13;;;;;;;13.02;5.30;;;19.20;99.90;;;;;;5072586;28;20092;-71
2021/09/28 07:05:43;;;;;;;14.25;5.68;;;19.00;99.90;;;;;;5072293;28;20090;-71
2021/09/28 07:08:11;;;;;;;13.32;5.80;;;18.90;99.90;;;;;;5072296;28;20041;-72
2021/09/28 07:10:38;;;;;;;15.20;5.78;;;18.80;99.90;;;;;;5072352;28;20150;-72
2021/09/28 07:13:09;;;;;;;13.77;5.93;;;18.60;99.90;;;;;;5071008;28;20457;-70
2021/09/28 07:15:36;;;;;;;14.95;5.57;;;18.60;99.90;;;;;;5072585;28;20049;-72
2021/09/28 07:18:04;;;;;;;15.38;6.57;;;18.50;99.90;;;;;;5072301;28;20024;-72
2021/09/28 07:20:31;;;;;;;13.85;6.68;;;18.40;99.90;;;;;;5072185;28;20099;-71
2021/09/28 07:22:59;;;;;;;16.48;6.57;;;18.30;99.90;;;;;;5072351;28;20431;-71
2021/09/28 07:25:26;;;;;;;13.43;6.30;;;18.20;99.90;;;;;;5072286;28;20020;-72
2021/09/28 07:28:01;;;;;;;12.52;6.88;;;18.20;99.90;;;;;;5072149;28;20043;-72
2021/09/28 07:30:34;;;;;;;20.23;7.28;;;18.20;99.90;;;;;;5072174;28;20025;-70
2021/09/28 07:33:02;;;;;;;15.02;6.90;;;18.20;99.90;;;;;;5070576;28;20022;-71
2021/09/28 07:35:30;;;;;;;17.27;6.78;;;18.10;99.90;;;;;;5070943;28;20036;-71
2021/09/28 07:37:58;;;;;;;16.15;7.43;;;18.00;99.90;;;;;;5070907;28;20052;-72
2021/09/28 07:40:26;;;;;;;16.95;7.82;;;18.00;99.90;;;;;;5070718;28;20021;-73
2021/09/28 07:42:54;;;;;;;13.00;7.25;;;17.90;99.90;;;;;;5071616;28;20024;-75
2021/09/28 07:45:21;;;;;;;9.80;6.88;;;17.80;99.90;;;;;;5075695;28;20071;-73
2021/09/28 07:47:49;;;;;;;16.80;7.50;;;17.70;99.90;;;;;;5075595;28;20103;-74
2021/09/28 07:50:18;;;;;;;15.73;8.38;;;17.70;99.90;;;;;;5074421;28;20032;-74
2021/09/28 07:52:46;;;;;;;16.77;7.80;;;17.60;99.90;;;;;;5074152;28;20035;-73
2021/09/28 07:55:13;;;;;;;14.40;7.88;;;17.60;99.90;;;;;;5075615;28;20069;-73
2021/09/28 07:57:41;;;;;;;15.57;8.23;;;17.50;99.90;;;;;;5075413;28;20083;-74
2021/09/28 08:00:10;;;;;;;13.70;8.02;;;17.50;99.90;;;;;;5075431;28;20029;-73
2021/09/28 08:02:42;;;;;;;17.73;9.43;;;17.40;99.90;;;;;;5074029;28;20051;-74
2021/09/28 08:05:10;;;;;;;14.00;8.90;;;17.40;99.90;;;;;;5075286;28;20111;-73
2021/09/28 08:07:41;;;;;;;21.05;9.13;;;17.30;99.90;;;;;;5073941;28;20028;-72
2021/09/28 08:10:10;;;;;;;16.08;9.30;;;17.30;99.90;;;;;;5075310;28;20037;-74
2021/09/28 08:12:38;;;;;;;16.42;9.00;;;17.30;99.90;;;;;;5075119;28;20025;-73
2021/09/28 08:15:07;;;;;;;12.32;9.77;;;17.20;99.90;;;;;;5074728;28;20021;-73
2021/09/28 08:17:35;;;;;;;16.40;10.18;;;17.20;99.90;;;;;;5075073;28;20500;-74
2021/09/28 08:20:03;;;;;;;18.30;9.82;;;17.20;99.90;;;;;;5075029;28;20477;-73
2021/09/28 08:22:31;;;;;;;15.82;9.95;;;17.10;99.90;;;;;;5075009;28;20098;-74
2021/09/28 08:25:07;;;;;;;14.52;10.00;;;17.10;99.90;;;;;;5073818;28;20029;-74
2021/09/28 08:30:19;;;;;;;18.70;10.43;;;17.00;99.90;;;;;;5075096;28;20032;-74
2021/09/28 08:32:47;;;;;;;21.95;10.05;;;17.00;99.90;;;;;;5074843;28;20505;-73
2021/09/28 08:35:15;;;;;;;19.73;9.48;;;17.00;99.90;;;;;;5073327;28;20024;-73
2021/09/28 08:37:43;;;;;;;14.85;9.50;;;17.00;99.90;;;;;;5073344;28;20029;-73
2021/09/28 08:40:14;;;;;;;18.02;10.00;;;17.00;99.90;;;;;;5075021;28;20100;-72
2021/09/28 08:42:41;;;;;;;16.13;9.63;;;16.90;99.90;;;;;;5074626;28;20388;-74
2021/09/28 08:45:10;;;;;;;15.13;9.35;;;16.90;99.90;;;;;;5074604;28;20032;-72
2021/09/28 08:47:42;;;;;;;17.55;9.02;;;16.90;99.90;;;;;;5074485;28;20218;-73
2021/09/28 08:50:17;;;;;;;13.52;9.60;;;16.90;99.90;;;;;;5074642;28;20107;-74
2021/09/28 08:52:48;;;;;;;17.60;9.80;;;16.90;99.90;;;;;;5073044;28;20439;-73
2021/09/28 08:55:15;;;;;;;15.85;9.65;;;16.90;99.90;;;;;;5073903;28;20013;-74
2021/09/28 08:57:43;;;;;;;20.95;11.05;;;16.90;99.90;;;;;;5073032;28;20442;-72
2021/09/28 09:00:20;;;;;;;21.60;10.77;;;16.90;99.90;;;;;;5074342;28;20388;-73
2021/09/28 09:02:49;;;;;;;17.80;9.73;;;16.80;99.90;;;;;;5072944;28;20027;-74
2021/09/28 09:05:17;;;;;;;17.42;9.32;;;16.80;99.90;;;;;;5072756;28;20024;-74
2021/09/28 09:08:04;;;;;;;20.25;10.32;;;16.80;99.90;;;;;;5074026;28;20031;-73
2021/09/28 09:10:34;;;;;;;15.88;10.50;;;16.80;99.90;;;;;;5074143;28;20036;-72
2021/09/28 09:13:01;;;;;;;17.65;11.77;;;16.80;99.90;;;;;;5073956;28;20065;-70
2021/09/28 09:15:31;;;;;;;18.73;10.43;;;16.80;99.90;;;;;;5072426;28;20072;-73
2021/09/28 09:18:07;;;;;;;16.80;10.43;;;16.80;99.90;;;;;;5073790;28;20024;-73
2021/09/28 09:20:38;;;;;;;23.80;10.52;;;16.80;99.90;;;;;;5073777;28;20036;-71
2021/09/28 09:23:22;;;;;;;22.85;11.13;;;16.80;99.90;;;;;;5072344;28;20032;-72
2021/09/28 09:25:59;;;;;;;18.67;9.88;;;16.80;99.90;;;;;;5073710;28;20025;-73
2021/09/28 09:28:32;;;;;;;18.25;10.23;;;16.70;99.90;;;;;;5073473;28;20029;-72
2021/09/28 09:31:16;;;;;;;23.42;10.30;;;16.90;99.90;;;;;;5073547;28;20061;-73
2021/09/28 09:33:45;;;;;;;22.38;10.70;;;16.80;99.90;;;;;;5073543;28;20052;-74
2021/09/28 09:36:17;;;;;;;19.95;9.65;;;16.80;99.90;;;;;;5073400;28;20431;-73
2021/09/28 09:38:47;;;;;;;19.65;9.43;;;16.80;99.90;;;;;;5073460;28;20027;-74
2021/09/28 09:41:16;;;;;;;20.85;9.10;;;16.80;99.90;;;;;;5073336;28;20024;-74
2021/09/28 09:43:48;;;;;;;17.63;10.02;;;16.90;99.90;;;;;;5073294;28;20029;-74
2021/09/28 09:46:20;;;;;;;20.75;9.13;;;16.80;99.90;;;;;;5072048;28;20484;-74
2021/09/28 09:48:49;;;;;;;17.48;9.60;;;16.80;99.90;;;;;;5073243;28;20389;-72
2021/09/28 09:51:21;;;;;;;14.05;9.00;;;16.80;99.90;;;;;;5071760;28;20036;-73
2021/09/28 09:54:00;;;;;;;18.33;9.35;;;16.80;99.90;;;;;;5073038;28;20610;-73
2021/09/28 09:56:50;;;;;;;17.65;9.02;;;16.90;99.90;;;;;;5073120;28;20473;-72
2021/09/28 09:59:20;;;;;;;16.75;9.02;;;16.90;99.90;;;;;;5071847;28;20047;-75
2021/09/28 10:01:48;;;;;;;15.53;8.87;;;16.90;99.90;;;;;;5071939;28;20120;-74
2021/09/28 10:04:22;;;;;;;19.35;10.93;;;16.90;99.90;;;;;;5072965;28;20434;-73
2021/09/28 10:06:50;;;;;;;15.73;9.70;;;16.90;99.90;;;;;;5070925;28;20029;-74
2021/09/28 10:09:35;;;;;;;22.67;10.00;;;16.90;99.90;;;;;;5072902;28;20077;-73
2021/09/28 10:12:05;;;;;;;22.13;10.52;;;16.90;99.90;;;;;;5071639;28;20036;-75
2021/09/28 10:14:39;;;;;;;17.45;10.10;;;16.90;99.90;;;;;;5072953;28;20036;-74
2021/09/28 10:17:22;;;;;;;21.83;10.55;;;16.80;99.90;;;;;;5071376;28;20040;-74
2021/09/28 10:19:51;;;;;;;21.80;10.55;;;16.80;99.90;;;;;;5071571;28;20557;-73
2021/09/28 10:22:37;;;;;;;17.42;10.32;;;16.80;99.90;;;;;;5072898;28;20564;-74
2021/09/28 10:25:31;;;;;;;19.88;10.75;;;16.80;99.90;;;;;;5072727;28;20013;-74
2021/09/28 10:28:05;;;;;;;22.33;11.15;;;16.70;99.90;;;;;;5071489;28;20043;-74
2021/09/28 10:30:35;;;;;;;22.10;9.68;;;16.70;99.90;;;;;;5072710;28;20013;-73
2021/09/28 10:33:04;;;;;;;15.88;10.02;;;16.70;99.90;;;;;;5072684;28;20043;-73
2021/09/28 10:35:33;;;;;;;20.95;10.75;;;16.80;99.90;;;;;;5072636;28;20028;-75
2021/09/28 10:38:06;;;;;;;22.73;10.23;;;16.80;99.90;;;;;;5071328;28;20457;-74
2021/09/28 10:40:45;;;;;;;20.67;10.35;;;16.70;99.90;;;;;;5073045;28;20472;-73
2021/09/28 10:43:32;;;;;;;22.90;10.05;;;16.80;99.90;;;;;;5071352;28;20024;-75
2021/09/28 10:46:04;;;;;;;14.63;9.48;;;16.80;99.90;;;;;;5071386;28;20029;-74
2021/09/28 10:48:36;;;;;;;19.48;10.27;;;16.80;99.90;;;;;;5072506;28;20020;-75
2021/09/28 10:51:14;;;;;;;17.77;10.27;;;16.90;99.90;;;;;;5072587;28;20438;-75
2021/09/28 10:53:53;;;;;;;17.83;9.80;;;16.90;99.90;;;;;;5072521;28;20029;-75
2021/09/28 10:56:21;;;;;;;21.58;10.50;;;16.90;99.90;;;;;;5071162;28;20025;-74
2021/09/28 10:59:02;;;;;;;20.20;9.73;;;16.90;99.90;;;;;;5072455;28;20017;-74
2021/09/28 11:01:31;;;;;;;20.90;10.70;;;17.00;99.90;;;;;;5072474;28;20492;-74
2021/09/28 11:04:14;;;;;;;19.63;9.75;;;17.00;99.90;;;;;;5072511;28;20033;-74
2021/09/28 11:06:58;;;;;;;16.92;9.73;;;16.90;99.90;;;;;;5072515;28;20020;-73
2021/09/28 11:09:43;;;;;;;14.77;9.80;;;16.90;99.90;;;;;;5072471;28;20070;-74
2021/09/28 11:12:10;;;;;;;17.40;9.30;;;16.90;99.90;;;;;;5070860;28;20026;-74
2021/09/28 11:14:39;;;;;;;15.38;9.23;;;16.90;99.90;;;;;;5071059;28;20389;-72
2021/09/28 11:17:13;;;;;;;18.55;9.60;;;17.00;99.90;;;;;;5072095;28;20061;-72
2021/09/28 11:19:41;;;;;;;20.92;9.25;;;16.90;99.90;;;;;;5074941;28;20039;-74
2021/09/28 11:22:11;;;;;;;15.20;8.25;;;17.00;99.90;;;;;;5076276;28;20020;-72
2021/09/28 11:24:39;;;;;;;16.83;8.98;;;17.00;99.90;;;;;;5076367;28;20025;-72
2021/09/28 11:27:13;;;;;;;14.45;8.65;;;17.00;99.90;;;;;;5076035;28;20032;-74
2021/09/28 11:29:42;;;;;;;14.38;9.02;;;16.90;99.90;;;;;;5075920;28;20100;-74
2021/09/28 11:32:11;;;;;;;14.23;8.18;;;16.80;99.90;;;;;;5074541;28;20020;-75
2021/09/28 11:34:41;;;;;;;14.80;8.68;;;16.80;99.90;;;;;;5076029;28;20081;-76
2021/09/28 11:37:09;;;;;;;17.83;8.50;;;16.80;99.90;;;;;;5076131;28;20024;-74
2021/09/28 11:39:43;;;;;;;13.43;8.38;;;16.70;99.90;;;;;;5075844;28;20036;-74
2021/09/28 11:42:12;;;;;;;18.92;8.60;;;16.70;99.90;;;;;;5074513;28;20025;-74
2021/09/28 11:44:49;;;;;;;14.23;7.72;;;16.70;99.90;;;;;;5058275;28;20036;-79
2021/09/28 11:47:19;;;;;;;21.40;8.80;;;16.70;99.90;;;;;;5075274;28;20396;-75
2021/09/28 11:49:53;;;;;;;18.85;8.82;;;16.70;99.90;;;;;;5074944;28;20028;-77
2021/09/28 11:52:22;;;;;;;16.13;8.70;;;16.60;99.90;;;;;;5074670;28;20409;-77
2021/09/28 11:54:52;;;;;;;18.95;9.07;;;16.80;99.90;;;;;;5074961;28;20048;-75
2021/09/28 11:57:21;;;;;;;17.10;8.88;;;16.70;99.90;;;;;;5074276;28;20027;-74
2021/09/28 11:59:49;;;;;;;12.23;8.75;;;16.60;99.90;;;;;;5074087;28;20036;-74
2021/09/28 12:02:20;;;;;;;14.70;9.20;;;16.70;99.90;;;;;;5075330;28;20017;-75
2021/09/28 12:10:18;;;;;;;20.70;9.20;;;16.50;99.90;;;;;;5075565;28;20024;-75
2021/09/28 12:12:47;;;;;;;18.63;9.23;;;16.50;99.90;;;;;;5075179;28;20162;-74
2021/09/28 12:15:16;;;;;;;13.20;8.68;;;16.50;99.90;;;;;;5057201;28;20055;-75
2021/09/28 12:17:47;;;;;;;15.60;8.75;;;16.40;99.90;;;;;;5075416;28;20099;-73
2021/09/28 12:20:22;;;;;;;11.75;8.50;;;16.40;99.90;;;;;;5073787;28;20021;-74
2021/09/28 12:22:52;;;;;;;16.20;9.30;;;16.40;99.90;;;;;;5075171;28;20040;-73
2021/09/28 12:25:23;;;;;;;;;;;16.30;99.90;;;;;;5075727;28;20025;-73
2021/09/28 12:28:08;;;;;;;16.25;8.88;;;16.30;99.90;;;;;;5074966;28;20315;-74
2021/09/28 12:30:56;;;;;;;14.68;8.88;;;15.20;99.90;;;;;;5072560;28;20135;-73
2021/09/28 12:33:24;;;;;;;12.45;7.88;;;16.20;99.90;;;;;;5074908;28;20040;-73
2021/09/28 12:35:54;;;;;;;12.13;8.55;;;16.20;99.90;;;;;;5074876;28;20100;-74
2021/09/28 12:38:22;;;;;;;13.77;8.40;;;16.20;99.90;;;;;;5074840;28;20043;-75
2021/09/28 12:40:49;;;;;;;17.35;10.13;;;16.20;99.90;;;;;;5074747;28;20024;-74
2021/09/28 12:43:18;;;;;;;13.02;8.07;;;16.20;99.90;;;;;;5073495;28;20029;-75
2021/09/28 12:45:51;;;;;;;14.77;8.77;;;16.20;99.90;;;;;;5073383;28;20389;-74
2021/09/28 12:48:24;;;;;;;14.13;8.80;;;16.20;99.90;;;;;;5074644;28;20107;-74
2021/09/28 12:51:02;;;;;;;12.38;8.80;;;16.20;99.90;;;;;;5073486;28;20029;-75
2021/09/28 12:53:30;;;;;;;10.77;8.25;;;16.10;99.90;;;;;;5073099;28;20031;-75
2021/09/28 12:55:58;;;;;;;16.00;8.70;;;16.10;99.90;;;;;;5074674;28;20442;-75
2021/09/28 12:58:25;;;;;;;13.30;9.50;;;16.10;99.90;;;;;;5074466;28;20036;-75
2021/09/28 13:00:54;;;;;;;14.27;9.52;;;16.00;99.90;;;;;;5074385;28;20100;-75